createdAt,value
2023-04-28T00:00:38.573Z,100680.88
2023-04-28T00:03:06.584Z,100674.25
2023-04-28T00:05:34.376Z,100658.63
2023-04-28T00:08:04.376Z,100654.25
2023-04-28T00:10:32.621Z,100644.66
2023-04-28T00:13:00.530Z,100642.75
2023-04-28T00:15:28.145Z,100625.69
2023-04-28T00:17:55.944Z,100605.91
2023-04-28T00:20:23.655Z,100623.16
2023-04-28T00:22:51.386Z,100620.22
2023-04-28T00:25:20.471Z,100607.91
2023-04-28T00:27:48.093Z,100628.75
2023-04-28T00:30:16.061Z,100634.31
2023-04-28T00:32:43.808Z,100622.34
2023-04-28T00:35:11.561Z,100627.81
2023-04-28T00:37:39.816Z,100630.06
2023-04-28T00:40:08.836Z,100626.81
2023-04-28T00:42:38.102Z,100614.09
2023-04-28T00:45:08.397Z,100595.16
2023-04-28T00:47:36.188Z,100591.88
2023-04-28T00:50:05.751Z,100596.25
2023-04-28T00:52:33.452Z,100586.47
2023-04-28T00:55:01.226Z,100585.38
2023-04-28T00:57:28.963Z,100570.03
2023-04-28T00:59:58.354Z,100562.22
2023-04-28T01:02:26.794Z,100547.75
2023-04-28T01:04:55.306Z,100524.94
2023-04-28T01:07:22.954Z,100513.69
2023-04-28T01:09:51.243Z,100494.66
2023-04-28T01:12:18.931Z,100472.81
2023-04-28T01:14:46.694Z,100495.31
2023-04-28T01:17:15.876Z,100476.75
2023-04-28T01:19:43.455Z,100463.47
2023-04-28T01:22:14.046Z,100471.81
2023-04-28T01:24:43.039Z,100466.22
2023-04-28T01:27:11.379Z,100479.47
2023-04-28T01:29:39.055Z,100478.28
2023-04-28T01:32:06.808Z,100473.28
2023-04-28T01:34:34.489Z,100472.81
2023-04-28T01:37:02.130Z,100463.63
2023-04-28T01:39:29.731Z,100456.63
2023-04-28T01:41:58.877Z,100460.59
2023-04-28T01:44:26.657Z,100479.00
2023-04-28T01:46:54.302Z,100488.97
2023-04-28T01:49:21.940Z,100488.16
2023-04-28T01:51:49.539Z,100491.38
2023-04-28T01:54:17.439Z,100487.63
2023-04-28T01:56:45.257Z,100501.97
2023-04-28T01:59:14.302Z,100511.03
2023-04-28T02:01:41.944Z,100517.31
2023-04-28T02:04:09.709Z,100493.75
2023-04-28T02:06:37.537Z,100499.97
2023-04-28T02:09:05.329Z,100497.91
2023-04-28T02:11:33.004Z,100475.72
2023-04-28T02:14:00.656Z,100467.88
2023-04-28T02:16:29.744Z,100459.03
2023-04-28T02:18:57.523Z,100448.44
2023-04-28T02:21:26.318Z,100440.81
2023-04-28T02:23:53.797Z,100438.81
2023-04-28T02:26:21.461Z,100437.03
2023-04-28T02:28:49.162Z,100439.44
2023-04-28T02:31:17.185Z,100411.44
2023-04-28T02:33:46.285Z,100417.56
2023-04-28T02:36:13.915Z,100427.63
2023-04-28T02:38:41.823Z,100400.28
2023-04-28T02:41:10.163Z,100397.59
2023-04-28T02:43:38.460Z,100402.75
2023-04-28T02:46:06.443Z,100374.84
2023-04-28T02:48:35.979Z,100404.06
2023-04-28T02:51:05.224Z,100393.91
2023-04-28T02:53:32.902Z,100383.06
2023-04-28T02:56:02.145Z,100374.88
2023-04-28T02:58:29.853Z,100387.19
2023-04-28T03:00:57.465Z,100328.91
2023-04-28T03:03:25.348Z,100349.66
2023-04-28T03:05:53.451Z,100324.63
2023-04-28T03:08:22.518Z,100309.19
2023-04-28T03:10:50.167Z,100298.69
2023-04-28T03:13:17.839Z,100294.53
2023-04-28T03:15:45.561Z,100294.09
2023-04-28T03:18:13.278Z,100283.25
2023-04-28T03:20:41.016Z,100283.44
2023-04-28T03:23:08.738Z,100299.84
2023-04-28T03:25:37.860Z,100284.13
2023-04-28T03:28:06.099Z,100281.81
2023-04-28T03:30:33.839Z,100256.50
2023-04-28T03:33:01.616Z,100249.66
2023-04-28T03:35:29.254Z,100252.81
2023-04-28T03:37:56.917Z,100250.75
2023-04-28T03:40:24.698Z,100239.06
2023-04-28T03:42:53.739Z,100241.59
2023-04-28T03:45:21.478Z,100233.06
2023-04-28T03:47:49.085Z,100223.13
2023-04-28T03:50:16.834Z,100234.63
2023-04-28T03:52:44.535Z,100224.09
2023-04-28T03:55:12.513Z,100214.16
2023-04-28T03:57:40.424Z,100203.38
2023-04-28T04:00:11.102Z,100191.25
2023-04-28T04:02:38.929Z,100185.59
2023-04-28T04:05:07.391Z,100191.09
2023-04-28T04:07:35.404Z,100191.91
2023-04-28T04:10:04.549Z,100185.81
2023-04-28T04:12:32.592Z,100194.84
2023-04-28T04:15:00.214Z,100187.31
2023-04-28T04:17:29.400Z,100198.19
2023-04-28T04:19:57.093Z,100197.38
2023-04-28T04:22:24.758Z,100207.22
2023-04-28T04:24:52.370Z,100213.44
2023-04-28T04:27:20.254Z,100208.25
2023-04-28T04:29:47.893Z,100226.34
2023-04-28T04:32:15.605Z,100224.28
2023-04-28T04:34:44.852Z,100214.16
2023-04-28T04:37:12.586Z,100219.44
2023-04-28T04:39:40.185Z,100214.69
2023-04-28T04:42:20.636Z,100203.22
2023-04-28T04:44:51.467Z,100221.94
2023-04-28T04:47:19.144Z,100221.22
2023-04-28T04:49:49.342Z,100198.50
2023-04-28T04:52:17.079Z,100214.84
2023-04-28T04:54:44.837Z,100203.28
2023-04-28T04:57:12.552Z,100223.41
2023-04-28T04:59:40.208Z,100199.50
2023-04-28T05:02:08.184Z,100204.25
2023-04-28T05:04:36.255Z,100230.47
2023-04-28T05:07:05.398Z,100200.94
2023-04-28T05:09:33.908Z,100188.00
2023-04-28T05:12:01.898Z,100222.09
2023-04-28T05:14:29.544Z,100216.09
2023-04-28T05:16:57.428Z,100215.28
2023-04-28T05:19:25.381Z,100217.50
2023-04-28T05:21:54.687Z,100234.75
2023-04-28T05:24:24.526Z,100207.81
2023-04-28T05:26:52.540Z,100206.72
2023-04-28T05:29:20.426Z,100177.19
2023-04-28T05:31:48.183Z,100112.63
2023-04-28T05:34:16.126Z,100076.84
2023-04-28T05:36:44.230Z,100040.34
2023-04-28T05:39:11.980Z,99960.06
2023-04-28T05:41:41.077Z,99904.50
2023-04-28T05:44:08.894Z,99839.25
2023-04-28T05:46:37.852Z,99782.44
2023-04-28T05:49:05.651Z,99727.28
2023-04-28T05:51:33.734Z,99683.47
2023-04-28T05:54:01.590Z,99651.47
2023-04-28T05:56:29.417Z,99614.25
2023-04-28T05:58:58.608Z,99574.78
2023-04-28T06:01:26.366Z,99542.19
2023-04-28T06:03:56.509Z,99501.34
2023-04-28T06:06:24.413Z,99473.28
2023-04-28T06:08:52.125Z,99433.69
2023-04-28T06:11:22.410Z,99413.41
2023-04-28T06:13:50.764Z,99387.25
2023-04-28T06:16:20.137Z,99371.03
2023-04-28T06:18:49.794Z,99342.25
2023-04-28T06:21:18.428Z,99318.84
2023-04-28T06:23:46.173Z,99323.81
2023-04-28T06:26:14.736Z,99342.25
2023-04-28T06:28:43.534Z,99322.22
2023-04-28T06:31:11.207Z,99319.81
2023-04-28T06:33:40.164Z,99305.59
2023-04-28T06:36:08.883Z,99325.75
2023-04-28T06:38:37.227Z,99323.13
2023-04-28T06:41:05.360Z,99325.13
2023-04-28T06:43:33.460Z,99328.06
2023-04-28T06:46:01.430Z,99323.22
2023-04-28T06:48:29.180Z,99310.97
2023-04-28T06:50:58.125Z,99307.31
2023-04-28T06:53:25.846Z,99295.63
2023-04-28T06:55:53.649Z,99272.69
2023-04-28T06:58:21.827Z,99270.59
2023-04-28T07:00:49.559Z,99268.84
2023-04-28T07:03:17.257Z,99271.16
2023-04-28T07:05:45.022Z,99284.75
2023-04-28T07:08:14.092Z,99302.31
2023-04-28T07:10:42.255Z,99300.72
2023-04-28T07:13:10.274Z,99284.63
2023-04-28T07:15:38.497Z,99273.19
2023-04-28T07:18:06.352Z,99271.53
2023-04-28T07:20:34.153Z,99274.53
2023-04-28T07:23:01.919Z,99277.13
2023-04-28T07:25:31.183Z,99282.56
2023-04-28T07:27:59.037Z,99255.34
2023-04-28T07:30:28.304Z,99239.03
2023-04-28T07:32:56.516Z,99242.44
2023-04-28T07:35:24.386Z,99239.31
2023-04-28T07:37:52.205Z,99232.38
2023-04-28T07:40:20.285Z,99238.31
2023-04-28T07:42:49.388Z,99231.91
2023-04-28T07:45:17.223Z,99225.75
2023-04-28T07:47:44.994Z,99226.19
2023-04-28T07:50:13.504Z,99214.88
2023-04-28T07:52:41.279Z,99213.28
2023-04-28T07:55:09.497Z,99209.66
2023-04-28T07:57:37.345Z,99208.44
2023-04-28T08:00:08.480Z,99203.78
2023-04-28T08:02:36.339Z,99190.44
2023-04-28T08:05:04.534Z,99186.44
2023-04-28T08:07:32.346Z,99182.59
2023-04-28T08:10:01.097Z,99170.09
2023-04-28T08:12:28.630Z,99170.53
2023-04-28T08:14:57.803Z,99173.84
2023-04-28T08:17:26.898Z,99169.44
2023-04-28T08:19:54.622Z,99155.38
2023-04-28T08:22:22.399Z,99132.28
2023-04-28T08:24:50.135Z,99121.69
2023-04-28T08:27:18.202Z,99098.03
2023-04-28T08:29:45.920Z,99099.78
2023-04-28T08:32:13.578Z,99098.25
2023-04-28T08:34:42.681Z,99087.81
2023-04-28T08:37:10.963Z,99086.19
2023-04-28T08:39:38.686Z,99079.97
2023-04-28T08:42:06.442Z,99051.81
2023-04-28T08:44:39.410Z,99062.72
2023-04-28T08:47:13.240Z,99035.03
2023-04-28T08:49:42.680Z,99036.03
2023-04-28T08:52:12.932Z,99034.91
2023-04-28T08:54:41.570Z,99020.69
2023-04-28T08:57:10.974Z,98998.97
2023-04-28T08:59:41.020Z,98968.34
2023-04-28T09:02:09.495Z,98941.53
2023-04-28T09:04:37.547Z,98894.19
2023-04-28T09:07:12.267Z,98885.16
2023-04-28T09:09:40.818Z,98869.84
2023-04-28T09:12:09.180Z,98858.16
2023-04-28T09:14:38.146Z,98836.56
2023-04-28T09:17:13.048Z,98810.91
2023-04-28T09:19:43.042Z,98777.66
2023-04-28T09:22:24.913Z,98750.41
2023-04-28T09:24:55.354Z,98667.16
2023-04-28T09:27:28.379Z,98612.16
2023-04-28T09:29:56.461Z,98574.13
2023-04-28T09:32:25.915Z,98525.16
2023-04-28T09:34:56.962Z,98499.75
2023-04-28T09:37:30.716Z,98497.50
2023-04-28T09:40:04.487Z,98493.84
2023-04-28T09:42:34.121Z,98431.63
2023-04-28T09:45:03.174Z,98433.72
2023-04-28T09:47:32.818Z,98388.94
2023-04-28T09:50:03.670Z,98349.75
2023-04-28T09:52:34.643Z,98290.13
2023-04-28T09:55:03.878Z,98259.00
2023-04-28T09:57:33.505Z,98242.34
2023-04-28T10:00:02.292Z,98233.94
2023-04-28T10:05:02.227Z,98192.00
2023-04-28T10:07:30.953Z,98176.03
2023-04-28T10:10:00.409Z,98166.53
2023-04-28T10:12:28.497Z,98152.28
2023-04-28T10:14:57.090Z,98152.81
2023-04-28T10:17:27.346Z,98156.47
2023-04-28T10:19:55.675Z,98165.09
2023-04-28T10:22:38.787Z,98122.09
2023-04-28T10:25:31.227Z,98161.00
2023-04-28T10:28:00.499Z,98140.44
2023-04-28T10:30:30.361Z,98178.19
2023-04-28T10:33:26.909Z,98196.19
2023-04-28T10:35:54.907Z,98193.28
2023-04-28T10:38:22.731Z,98166.38
2023-04-28T10:40:53.689Z,98148.63
2023-04-28T10:43:40.591Z,98124.84
2023-04-28T10:46:10.261Z,98110.22
2023-04-28T10:48:59.115Z,98096.38
2023-04-28T10:51:31.904Z,98072.53
2023-04-28T10:54:28.267Z,98066.88
2023-04-28T10:57:25.063Z,98049.38
2023-04-28T10:59:52.853Z,98037.84
2023-04-28T11:02:44.679Z,98034.19
2023-04-28T11:05:19.295Z,98015.88
2023-04-28T11:08:33.122Z,97992.34
2023-04-28T11:11:20.729Z,97999.94
2023-04-28T11:13:50.339Z,97975.63
2023-04-28T11:16:20.741Z,97956.22
2023-04-28T11:18:56.729Z,97973.25
2023-04-28T11:21:28.265Z,97980.59
2023-04-28T11:23:58.656Z,97990.00
2023-04-28T11:26:26.858Z,97992.63
2023-04-28T11:28:58.304Z,97997.06
2023-04-28T11:31:27.372Z,98002.31
2023-04-28T11:33:59.227Z,98007.81
2023-04-28T11:36:29.438Z,97983.75
2023-04-28T11:38:57.911Z,98006.50
2023-04-28T11:41:26.519Z,97971.41
2023-04-28T11:43:55.810Z,97980.06
2023-04-28T11:46:25.253Z,97949.16
2023-04-28T11:49:02.482Z,97943.13
2023-04-28T11:51:35.453Z,97950.97
2023-04-28T11:54:04.060Z,97941.28
2023-04-28T11:56:32.137Z,97945.75
2023-04-28T11:59:09.017Z,97928.19
2023-04-28T12:01:45.632Z,97944.94
2023-04-28T12:04:14.247Z,97942.09
2023-04-28T12:06:42.287Z,97964.34
2023-04-28T12:09:21.657Z,97973.25
2023-04-28T12:11:56.930Z,97991.03
2023-04-28T12:14:26.588Z,97985.81
2023-04-28T12:16:54.288Z,97999.44
2023-04-28T12:19:21.978Z,97995.78
2023-04-28T12:22:04.447Z,98004.69
2023-04-28T12:24:32.504Z,97999.19
2023-04-28T12:27:16.836Z,98002.03
2023-04-28T12:29:47.817Z,97988.97
2023-04-28T12:32:16.099Z,98010.97
2023-04-28T12:34:46.161Z,98019.88
2023-04-28T12:37:14.143Z,98020.88
2023-04-28T12:39:42.737Z,98007.03
2023-04-28T12:42:10.755Z,97998.13
2023-04-28T12:44:39.102Z,97990.00
2023-04-28T12:47:11.067Z,97988.97
2023-04-28T12:49:39.368Z,98005.19
2023-04-28T12:52:07.720Z,97995.75
2023-04-28T12:54:35.778Z,97975.06
2023-04-28T12:57:04.085Z,97972.22
2023-04-28T12:59:32.726Z,97982.94
2023-04-28T13:02:00.671Z,97991.84
2023-04-28T13:04:30.127Z,97975.59
2023-04-28T13:06:58.561Z,97976.38
2023-04-28T13:09:27.055Z,98000.47
2023-04-28T13:11:54.784Z,98005.19
2023-04-28T13:14:22.787Z,98023.28
2023-04-28T13:16:51.790Z,98019.34
2023-04-28T13:19:19.563Z,98027.72
2023-04-28T13:21:48.637Z,98014.91
2023-04-28T13:24:16.429Z,98040.78
2023-04-28T13:26:45.356Z,98034.53
2023-04-28T13:29:14.427Z,98022.50
2023-04-28T13:31:42.365Z,98042.38
2023-04-28T13:34:15.906Z,98042.91
2023-04-28T13:36:44.207Z,97974.78
2023-04-28T13:39:14.706Z,97992.09
2023-04-28T13:41:42.853Z,97947.84
2023-04-28T13:44:10.726Z,97932.41
2023-04-28T13:46:38.502Z,97929.00
2023-04-28T13:49:06.325Z,97931.88
2023-04-28T13:51:34.273Z,97922.97
2023-04-28T13:54:04.455Z,97915.63
2023-04-28T13:56:33.859Z,97898.09
2023-04-28T13:59:02.194Z,97838.16
2023-04-28T14:01:30.326Z,97878.72
2023-04-28T14:03:58.296Z,97863.25
2023-04-28T14:06:26.433Z,97877.44
2023-04-28T14:08:54.141Z,97875.34
2023-04-28T14:11:22.560Z,97866.94
2023-04-28T14:13:51.797Z,97869.31
2023-04-28T14:16:19.769Z,97858.84
2023-04-28T14:18:47.523Z,97848.38
2023-04-28T14:21:15.151Z,97872.97
2023-04-28T14:23:42.918Z,97864.34
2023-04-28T14:26:10.658Z,97876.38
2023-04-28T14:28:38.570Z,97889.47
2023-04-28T14:31:08.986Z,97913.53
2023-04-28T14:33:37.180Z,97910.66
2023-04-28T14:36:05.302Z,97922.72
2023-04-28T14:38:33.174Z,97931.88
2023-04-28T14:41:00.847Z,97931.63
2023-04-28T14:43:28.491Z,97939.72
2023-04-28T14:45:56.246Z,97939.72
2023-04-28T14:48:26.031Z,97931.88
2023-04-28T14:50:53.750Z,97935.28
2023-04-28T14:53:21.474Z,97906.72
2023-04-28T14:55:49.818Z,97926.63
2023-04-28T14:58:17.557Z,97900.72
2023-04-28T15:00:45.280Z,97890.53
2023-04-28T15:03:13.048Z,97886.06
2023-04-28T15:05:42.374Z,97867.75
2023-04-28T15:08:11.596Z,97883.47
2023-04-28T15:10:40.586Z,97883.72
2023-04-28T15:13:08.696Z,97876.13
2023-04-28T15:15:36.480Z,97878.50
2023-04-28T15:18:04.602Z,97898.91
2023-04-28T15:20:33.545Z,97912.53
2023-04-28T15:23:02.713Z,97904.13
2023-04-28T15:25:30.624Z,97889.50
2023-04-28T15:27:58.331Z,97872.72
2023-04-28T15:30:26.081Z,97883.72
2023-04-28T15:32:53.916Z,97888.44
2023-04-28T15:35:22.136Z,97886.63
2023-04-28T15:37:52.103Z,97894.44
2023-04-28T15:40:21.588Z,97894.97
2023-04-28T15:42:51.524Z,97897.84
2023-04-28T15:45:21.307Z,97895.72
2023-04-28T15:47:50.440Z,97893.13
2023-04-28T15:50:20.167Z,97862.25
2023-04-28T15:52:50.196Z,97870.38
2023-04-28T15:55:20.005Z,97863.31
2023-04-28T15:57:49.933Z,97853.09
2023-04-28T16:00:17.983Z,97843.69
2023-04-28T16:02:46.557Z,97868.28
2023-04-28T16:05:14.753Z,97876.91
2023-04-28T16:07:42.758Z,97880.81
2023-04-28T16:10:12.432Z,97896.50
2023-04-28T16:12:41.206Z,97888.69
2023-04-28T16:15:12.543Z,97906.47
2023-04-28T16:17:41.026Z,97898.63
2023-04-28T16:20:10.492Z,97919.81
2023-04-28T16:22:38.774Z,97924.53
2023-04-28T16:25:07.282Z,97930.53
2023-04-28T16:27:35.894Z,97944.66
2023-04-28T16:30:06.234Z,97942.81
2023-04-28T16:32:36.601Z,97973.41
2023-04-28T16:35:06.261Z,97986.72
2023-04-28T16:37:36.294Z,97984.91
2023-04-28T16:40:04.602Z,97990.84
2023-04-28T16:42:32.265Z,97999.00
2023-04-28T16:44:59.969Z,98006.50
2023-04-28T16:47:28.375Z,98026.34
2023-04-28T16:49:57.652Z,98020.38
2023-04-28T16:52:25.349Z,98008.63
2023-04-28T16:54:53.041Z,98022.19
2023-04-28T16:57:20.729Z,98019.59
2023-04-28T16:59:48.515Z,97998.75
2023-04-28T17:02:16.513Z,98015.44
2023-04-28T17:04:44.174Z,98016.47
2023-04-28T17:07:13.328Z,98038.38
2023-04-28T17:09:40.997Z,98028.53
2023-04-28T17:12:09.357Z,98043.38
2023-04-28T17:14:38.961Z,98047.00
2023-04-28T17:17:06.668Z,98034.91
2023-04-28T17:19:34.383Z,98067.78
2023-04-28T17:22:02.083Z,98077.94
2023-04-28T17:24:31.172Z,98074.25
2023-04-28T17:26:58.919Z,98097.47
2023-04-28T17:29:26.768Z,98101.34
2023-04-28T17:31:54.577Z,98101.34
2023-04-28T17:34:22.367Z,98103.09
2023-04-28T17:36:50.264Z,98093.28
2023-04-28T17:39:17.889Z,98071.50
2023-04-28T17:41:47.351Z,98067.47
2023-04-28T17:44:15.015Z,98061.19
2023-04-28T17:46:42.787Z,98066.88
2023-04-28T17:49:10.978Z,98084.56
2023-04-28T17:51:38.631Z,98090.34
2023-04-28T17:54:09.416Z,98088.56
2023-04-28T17:56:38.827Z,98082.09
2023-04-28T17:59:08.961Z,98094.34
2023-04-28T18:01:36.969Z,98105.56
2023-04-28T18:04:04.823Z,98119.38
2023-04-28T18:06:32.498Z,98131.41
2023-04-28T18:09:00.234Z,98127.47
2023-04-28T18:11:28.129Z,98143.97
2023-04-28T18:13:56.219Z,98144.06
2023-04-28T18:16:25.347Z,98162.75
2023-04-28T18:18:53.048Z,98181.34
2023-04-28T18:21:20.808Z,98185.72
2023-04-28T18:23:48.487Z,98200.53
2023-04-28T18:26:16.483Z,98220.22
2023-04-28T18:28:47.125Z,98222.16
2023-04-28T18:31:15.046Z,98224.31
2023-04-28T18:33:44.952Z,98238.06
2023-04-28T18:36:12.802Z,98242.25
2023-04-28T18:38:40.526Z,98256.59
2023-04-28T18:41:16.191Z,98252.75
2023-04-28T18:43:44.591Z,98262.44
2023-04-28T18:46:12.452Z,98289.72
2023-04-28T18:48:41.000Z,98304.75
2023-04-28T18:51:10.046Z,98317.22
2023-04-28T18:53:37.910Z,98319.03
2023-04-28T18:56:05.735Z,98334.69
2023-04-28T18:58:33.573Z,98334.00
2023-04-28T19:01:01.323Z,98350.16
2023-04-28T19:03:29.186Z,98350.88
2023-04-28T19:05:57.091Z,98357.19
2023-04-28T19:08:26.210Z,98355.44
2023-04-28T19:10:53.933Z,98365.66
2023-04-28T19:13:21.676Z,98340.09
2023-04-28T19:15:53.510Z,98358.81
2023-04-28T19:18:21.201Z,98400.63
2023-04-28T19:20:50.469Z,98395.34
2023-04-28T19:23:18.154Z,98418.19
2023-04-28T19:25:47.434Z,98421.84
2023-04-28T19:28:15.249Z,98443.25
2023-04-28T19:30:42.969Z,98464.59
2023-04-28T19:33:10.717Z,98480.78
2023-04-28T19:35:38.675Z,98488.59
2023-04-28T19:38:06.328Z,98496.81
2023-04-28T19:40:33.952Z,98499.09
2023-04-28T19:43:03.040Z,98488.31
2023-04-28T19:45:30.865Z,98488.72
2023-04-28T19:47:58.827Z,98486.84
2023-04-28T19:50:26.663Z,98492.34
2023-04-28T19:52:54.412Z,98498.81
2023-04-28T19:55:23.289Z,98523.25
2023-04-28T19:57:52.177Z,98549.69
2023-04-28T20:00:21.726Z,98565.94
2023-04-28T20:02:49.863Z,98585.34
2023-04-28T20:05:17.626Z,98580.91
2023-04-28T20:07:45.251Z,98568.94
2023-04-28T20:10:13.351Z,98584.94
2023-04-28T20:12:41.392Z,98580.03
2023-04-28T20:15:09.927Z,98572.03
2023-04-28T20:17:39.045Z,98585.38
2023-04-28T20:20:07.891Z,98613.38
2023-04-28T20:22:36.281Z,98620.34
2023-04-28T20:25:05.945Z,98639.91
2023-04-28T20:27:34.559Z,98654.06
2023-04-28T20:30:02.303Z,98667.47
2023-04-28T20:32:30.034Z,98692.91
2023-04-28T20:34:59.062Z,98699.69
2023-04-28T20:37:27.141Z,98728.31
2023-04-28T20:39:55.027Z,98743.50
2023-04-28T20:42:23.201Z,98744.06
2023-04-28T20:44:51.917Z,98765.50
2023-04-28T20:47:19.611Z,98770.59
2023-04-28T20:49:47.577Z,98770.59
2023-04-28T20:52:17.082Z,98803.03
2023-04-28T20:54:45.727Z,98799.19
2023-04-28T20:57:13.482Z,98783.09
2023-04-28T20:59:41.134Z,98807.81
2023-04-28T21:02:09.012Z,98818.72
2023-04-28T21:04:36.753Z,98832.91
2023-04-28T21:07:04.415Z,98843.56
2023-04-28T21:09:33.487Z,98867.84
2023-04-28T21:12:01.971Z,98897.34
2023-04-28T21:14:29.638Z,98919.59
2023-04-28T21:16:57.330Z,98913.06
2023-04-28T21:19:25.769Z,98966.09
2023-04-28T21:21:53.442Z,98983.81
2023-04-28T21:24:21.010Z,99012.47
2023-04-28T21:26:50.258Z,99018.81
2023-04-28T21:29:18.458Z,99039.47
2023-04-28T21:31:47.260Z,99047.31
2023-04-28T21:34:15.064Z,99060.72
2023-04-28T21:36:42.834Z,99084.16
2023-04-28T21:39:10.494Z,99099.88
2023-04-28T21:41:38.267Z,99083.34
2023-04-28T21:44:07.296Z,99136.69
2023-04-28T21:46:35.483Z,99137.13
2023-04-28T21:49:03.445Z,99147.13
2023-04-28T21:51:32.016Z,99144.72
2023-04-28T21:53:59.753Z,99148.28
2023-04-28T21:56:27.435Z,99169.31
2023-04-28T21:58:55.114Z,99163.72
2023-04-28T22:01:24.409Z,99177.13
2023-04-28T22:03:52.353Z,99179.56
2023-04-28T22:06:20.643Z,99185.47
2023-04-28T22:08:48.499Z,99210.78
2023-04-28T22:11:16.256Z,99207.13
2023-04-28T22:13:43.901Z,99210.31
2023-04-28T22:16:13.488Z,99202.41
2023-04-28T22:18:42.655Z,99216.47
2023-04-28T22:21:11.142Z,99225.09
2023-04-28T22:23:38.833Z,99222.69
2023-04-28T22:26:06.730Z,99215.75
2023-04-28T22:28:34.441Z,99231.91
2023-04-28T22:31:02.197Z,99238.13
2023-04-28T22:33:30.049Z,99244.13
2023-04-28T22:35:59.417Z,99248.22
2023-04-28T22:38:27.131Z,99256.66
2023-04-28T22:40:54.811Z,99257.25
2023-04-28T22:43:22.509Z,99260.06
2023-04-28T22:45:50.824Z,99257.25
2023-04-28T22:48:19.091Z,99266.47
2023-04-28T22:50:47.379Z,99268.72
2023-04-28T22:53:16.684Z,99270.53
2023-04-28T22:55:44.359Z,99266.72
2023-04-28T22:58:12.005Z,99273.31
2023-04-28T23:00:39.694Z,99258.91
2023-04-28T23:03:07.511Z,99264.06
2023-04-28T23:05:37.987Z,99264.28
2023-04-28T23:08:05.967Z,99264.50
2023-04-28T23:10:35.000Z,99252.94
2023-04-28T23:13:02.690Z,99270.53
2023-04-28T23:15:30.736Z,99264.97
2023-04-28T23:17:58.367Z,99266.94
2023-04-28T23:20:26.076Z,99266.50
2023-04-28T23:22:56.657Z,99275.34
2023-04-28T23:25:24.377Z,99274.72
2023-04-28T23:27:53.448Z,99277.13
2023-04-28T23:30:21.231Z,99277.34
2023-04-28T23:32:48.910Z,99282.84
2023-04-28T23:35:16.797Z,99289.22
2023-04-28T23:37:44.470Z,99290.66
2023-04-28T23:40:12.980Z,99291.03
2023-04-28T23:42:41.104Z,99294.06
2023-04-28T23:45:11.121Z,99292.06
2023-04-28T23:47:38.863Z,99295.06
2023-04-28T23:50:08.222Z,99301.50
2023-04-28T23:52:36.374Z,99298.91
2023-04-28T23:55:04.045Z,99313.13
2023-04-28T23:57:31.752Z,99316.94
2023-04-28T23:59:59.485Z,99300.69
